Time;durP1;ratioP1;P1;durP2;ratioP2;P2;SDS_P1;SDS_P2;PMS_P1;PMS_P2;Temp;Humidity;BMP_temperature;BMP_pressure;BME280_temperature;BME280_humidity;BME280_pressure;Samples;Min_cycle;Max_cycle;Signal;HPM_P1;HPM_P2
2022/04/17 00:00:53;;;;;;;2.33;1.90;;;22.00;70.20;;;;;;4183805;28;20064;-61
2022/04/17 00:02:56;;;;;;;2.85;1.67;;;22.00;70.20;;;;;;4181876;28;20052;-57
2022/04/17 00:04:59;;;;;;;3.05;1.90;;;22.10;70.20;;;;;;4185572;28;20052;-58
2022/04/17 00:07:01;;;;;;;3.33;1.80;;;22.10;70.20;;;;;;4182675;28;20805;-57
2022/04/17 00:09:04;;;;;;;4.22;1.73;;;22.10;70.10;;;;;;4179698;28;20056;-57
2022/04/17 00:11:06;;;;;;;7.18;1.80;;;22.10;70.00;;;;;;4178561;28;20063;-61
2022/04/17 00:13:08;;;;;;;5.00;1.70;;;22.10;70.00;;;;;;4192221;28;20098;-57
2022/04/17 00:15:11;;;;;;;4.07;1.80;;;22.10;70.10;;;;;;4180927;28;20091;-61
2022/04/17 00:17:13;;;;;;;2.13;1.70;;;22.10;70.30;;;;;;4180292;28;20047;-60
2022/04/17 00:19:15;;;;;;;2.03;1.50;;;22.10;70.20;;;;;;4180059;28;20135;-59
2022/04/17 00:21:17;;;;;;;2.75;1.52;;;22.10;70.20;;;;;;4195603;28;20059;-59
2022/04/17 00:23:19;;;;;;;4.78;1.80;;;22.10;70.20;;;;;;4178784;28;20139;-61
2022/04/17 00:25:21;;;;;;;3.55;1.65;;;22.10;70.20;;;;;;4179229;28;20064;-59
2022/04/17 00:27:23;;;;;;;3.33;1.40;;;22.10;70.20;;;;;;4180766;28;20569;-61
2022/04/17 00:29:26;;;;;;;3.47;1.60;;;22.10;70.20;;;;;;4177809;28;20071;-60
2022/04/17 00:31:28;;;;;;;2.72;1.63;;;22.10;70.10;;;;;;4178320;28;20063;-60
2022/04/17 00:33:31;;;;;;;2.00;1.35;;;22.10;70.00;;;;;;4180510;28;20052;-61
2022/04/17 00:35:34;;;;;;;2.15;1.45;;;22.20;70.00;;;;;;4181700;28;20052;-60
2022/04/17 00:37:36;;;;;;;3.53;1.50;;;22.20;69.90;;;;;;4183951;28;20049;-60
2022/04/17 00:39:40;;;;;;;1.38;1.27;;;22.20;70.00;;;;;;4195969;28;20045;-59
2022/04/17 00:41:42;;;;;;;2.22;1.40;;;22.20;69.90;;;;;;4178699;28;20084;-61
2022/04/17 00:43:47;;;;;;;1.98;1.33;;;22.20;69.90;;;;;;4181524;28;20056;-60
2022/04/17 00:45:49;;;;;;;2.90;1.40;;;22.20;69.80;;;;;;4185513;28;20044;-60
2022/04/17 00:47:51;;;;;;;2.10;1.17;;;22.20;69.90;;;;;;4182331;28;20436;-62
2022/04/17 00:49:53;;;;;;;4.13;1.20;;;22.20;69.90;;;;;;4183685;28;20855;-59
2022/04/17 00:51:55;;;;;;;2.03;1.30;;;22.30;70.00;;;;;;4187700;28;20052;-61
2022/04/17 00:53:58;;;;;;;1.27;1.17;;;22.30;70.00;;;;;;4186340;28;20102;-61
2022/04/17 00:56:02;;;;;;;2.72;1.23;;;22.30;70.00;;;;;;4190969;28;20161;-59
2022/04/17 00:58:05;;;;;;;2.17;1.17;;;22.30;70.10;;;;;;4183396;28;20599;-60
2022/04/17 01:00:07;;;;;;;4.32;1.55;;;22.30;70.10;;;;;;4182794;28;20048;-57
2022/04/17 01:02:10;;;;;;;4.15;1.35;;;22.30;70.10;;;;;;4184856;28;20117;-58
2022/04/17 01:04:12;;;;;;;3.97;1.35;;;22.30;70.00;;;;;;4182330;28;20044;-58
2022/04/17 01:06:15;;;;;;;5.03;1.73;;;22.40;70.00;;;;;;4185000;28;20049;-59
2022/04/17 01:08:17;;;;;;;4.22;1.27;;;22.40;70.00;;;;;;4189246;28;20144;-60
2022/04/17 01:10:19;;;;;;;3.25;1.65;;;22.40;69.90;;;;;;4193319;28;20061;-61
2022/04/17 01:12:21;;;;;;;4.28;1.23;;;22.40;69.80;;;;;;4184473;28;20087;-59
2022/04/17 01:14:23;;;;;;;4.43;1.65;;;22.50;69.90;;;;;;4184975;28;20056;-57
2022/04/17 01:16:27;;;;;;;3.97;1.75;;;22.50;69.90;;;;;;4185911;28;20080;-61
2022/04/17 01:18:28;;;;;;;;;;;22.50;70.00;;;;;;4187083;28;20069;-59
2022/04/17 01:20:31;;;;;;;4.80;1.50;;;22.50;70.00;;;;;;4189569;28;20336;-60
2022/04/17 01:22:33;;;;;;;9.50;1.73;;;22.50;70.10;;;;;;4188930;28;20071;-60
2022/04/17 01:26:57;;;;;;;6.80;1.50;;;22.50;70.00;;;;;;4190807;28;20044;-60
2022/04/17 01:28:59;;;;;;;6.07;1.85;;;22.60;70.10;;;;;;4184583;28;20360;-61
2022/04/17 01:31:03;;;;;;;2.78;1.33;;;22.60;70.00;;;;;;4178129;28;20125;-61
2022/04/17 01:33:06;;;;;;;3.05;1.30;;;22.60;70.00;;;;;;4190697;28;20071;-61
2022/04/17 01:35:08;;;;;;;8.23;1.73;;;22.60;70.00;;;;;;4176982;28;20587;-60
2022/04/17 01:37:18;;;;;;;6.85;1.38;;;22.70;70.20;;;;;;4175865;28;20059;-61
2022/04/17 01:39:21;;;;;;;2.95;1.60;;;22.70;70.10;;;;;;4179577;28;20689;-58
2022/04/17 01:41:23;;;;;;;2.78;1.27;;;22.70;70.00;;;;;;4175023;28;20637;-60
2022/04/17 01:43:26;;;;;;;6.72;1.77;;;22.70;70.20;;;;;;4176343;28;20052;-60
2022/04/17 01:45:31;;;;;;;4.43;1.42;;;22.70;70.20;;;;;;4185469;28;20040;-59
2022/04/17 01:47:33;;;;;;;5.95;1.55;;;22.80;70.20;;;;;;4181870;28;20071;-58
2022/04/17 01:49:36;;;;;;;5.43;1.92;;;22.90;70.10;;;;;;4157470;28;20776;-54
2022/04/17 01:51:39;;;;;;;11.60;1.52;;;22.90;69.70;;;;;;4179785;28;20060;-56
2022/04/17 01:53:42;;;;;;;11.13;2.72;;;22.90;69.50;;;;;;4182995;28;20055;-57
2022/04/17 01:55:44;;;;;;;4.88;1.45;;;22.90;69.50;;;;;;4178974;28;20059;-58
2022/04/17 01:57:46;;;;;;;4.95;1.40;;;22.90;69.30;;;;;;4179699;28;20048;-56
2022/04/17 01:59:52;;;;;;;10.88;1.67;;;22.90;69.00;;;;;;4179955;28;20261;-55
2022/04/17 02:01:55;;;;;;;3.60;1.20;;;23.00;69.30;;;;;;4185244;28;20058;-59
2022/04/17 02:04:01;;;;;;;2.00;1.10;;;23.00;69.30;;;;;;4178799;28;20052;-59
2022/04/17 02:06:02;;;;;;;;;;;23.00;69.60;;;;;;4180379;28;20059;-59
2022/04/17 02:08:06;;;;;;;3.22;1.33;;;23.00;69.80;;;;;;4181320;28;20674;-60
2022/04/17 02:10:08;;;;;;;2.13;1.02;;;23.00;69.90;;;;;;4175975;28;20056;-60
2022/04/17 02:12:10;;;;;;;3.77;1.20;;;23.10;69.90;;;;;;4167067;28;20057;-59
2022/04/17 02:14:13;;;;;;;2.07;1.00;;;23.10;69.90;;;;;;4179417;28;20177;-59
2022/04/17 02:16:17;;;;;;;1.60;1.15;;;23.20;69.90;;;;;;4179755;28;20045;-59
2022/04/17 02:18:26;;;;;;;2.10;0.90;;;23.20;69.80;;;;;;4179918;28;20456;-60
2022/04/17 02:20:29;;;;;;;5.25;1.10;;;23.20;69.90;;;;;;4187216;28;20630;-61
2022/04/17 02:22:31;;;;;;;1.20;0.85;;;23.20;70.00;;;;;;4178034;28;20151;-57
2022/04/17 02:24:33;;;;;;;1.48;0.77;;;23.20;70.10;;;;;;4181088;28;20059;-59
2022/04/17 02:26:35;;;;;;;2.15;0.98;;;23.20;70.00;;;;;;4177663;28;20541;-58
2022/04/17 02:28:38;;;;;;;2.05;0.77;;;23.20;69.90;;;;;;4185480;28;20040;-60
2022/04/17 02:30:40;;;;;;;1.42;0.85;;;23.30;69.90;;;;;;4188357;28;20306;-58
2022/04/17 02:32:43;;;;;;;0.63;0.60;;;23.30;70.00;;;;;;4174544;28;20063;-57
2022/04/17 02:34:45;;;;;;;4.18;1.20;;;23.30;69.90;;;;;;4166997;28;20053;-59
2022/04/17 02:36:47;;;;;;;2.30;0.93;;;23.40;69.70;;;;;;4183298;28;20076;-58
2022/04/17 02:38:50;;;;;;;1.02;0.80;;;23.30;69.70;;;;;;4189089;28;20052;-55
2022/04/17 02:40:53;;;;;;;2.08;1.10;;;23.40;69.70;;;;;;4175616;28;20065;-56
2022/04/17 02:42:55;;;;;;;2.17;1.02;;;23.40;69.80;;;;;;4183465;28;20060;-56
2022/04/17 02:44:57;;;;;;;1.10;1.00;;;23.40;69.90;;;;;;4175638;28;20057;-59
2022/04/17 02:49:20;;;;;;;3.80;1.48;;;23.40;69.90;;;;;;4173216;28;20065;-59
2022/04/17 02:51:22;;;;;;;2.65;1.33;;;23.50;69.80;;;;;;4177265;28;20064;-58
2022/04/17 02:53:24;;;;;;;7.90;4.00;;;23.50;69.60;;;;;;4191956;28;20318;-60
2022/04/17 02:55:27;;;;;;;8.70;4.15;;;23.50;69.20;;;;;;4187233;28;20116;-60
2022/04/17 02:57:30;;;;;;;7.43;4.20;;;23.50;69.00;;;;;;4182555;28;20044;-60
2022/04/17 02:59:32;;;;;;;6.45;4.35;;;23.50;68.90;;;;;;4189451;28;20048;-59
2022/04/17 03:06:16;;;;;;;5.93;3.88;;;23.50;68.80;;;;;;4179882;28;20079;-61
2022/04/17 03:08:18;;;;;;;4.95;3.92;;;23.50;69.60;;;;;;4180823;28;20048;-60
2022/04/17 03:10:21;;;;;;;4.90;3.43;;;23.60;68.90;;;;;;4180427;28;20083;-59
2022/04/17 03:12:23;;;;;;;5.47;3.63;;;23.60;68.70;;;;;;4180915;28;20374;-60
2022/04/17 03:14:25;;;;;;;4.65;3.30;;;23.60;68.70;;;;;;4174098;28;20075;-59
2022/04/17 03:16:27;;;;;;;4.20;2.80;;;23.70;68.70;;;;;;4173601;28;20045;-59
2022/04/17 03:18:30;;;;;;;4.05;3.03;;;23.80;68.90;;;;;;4174884;28;20112;-60
2022/04/17 03:20:33;;;;;;;3.87;3.20;;;23.80;68.80;;;;;;4154160;28;20048;-58
2022/04/17 03:22:35;;;;;;;3.67;3.17;;;23.80;68.30;;;;;;4174305;28;20505;-55
2022/04/17 03:24:37;;;;;;;4.72;3.35;;;23.80;68.10;;;;;;4175012;28;20581;-57
2022/04/17 03:26:41;;;;;;;6.85;3.05;;;23.80;67.80;;;;;;4173067;28;20048;-57
2022/04/17 03:28:43;;;;;;;3.83;3.15;;;23.90;67.90;;;;;;4173123;28;20187;-59
2022/04/17 03:30:45;;;;;;;5.43;3.20;;;23.90;67.80;;;;;;4176885;28;20067;-59
2022/04/17 03:32:50;;;;;;;4.00;2.80;;;23.90;67.70;;;;;;4161734;28;20068;-59
2022/04/17 03:34:52;;;;;;;6.10;3.10;;;24.00;67.80;;;;;;4183960;28;20270;-59
2022/04/17 03:36:58;;;;;;;3.77;2.57;;;24.00;67.60;;;;;;4178748;28;20483;-59
2022/04/17 03:39:00;;;;;;;5.82;2.80;;;24.00;67.50;;;;;;4177493;28;20084;-60
2022/04/17 03:41:02;;;;;;;4.05;2.45;;;24.10;67.40;;;;;;4176994;28;20540;-57
2022/04/17 03:43:05;;;;;;;3.35;2.20;;;24.10;67.30;;;;;;4175496;28;20655;-56
2022/04/17 03:45:08;;;;;;;3.85;2.38;;;24.20;67.20;;;;;;4159462;28;20084;-60
2022/04/17 03:47:11;;;;;;;3.58;2.33;;;24.20;67.20;;;;;;4157903;28;20045;-60
2022/04/17 03:49:13;;;;;;;3.30;2.20;;;24.20;66.90;;;;;;4168333;28;20091;-63
2022/04/17 03:51:15;;;;;;;4.28;2.25;;;24.30;66.80;;;;;;4156275;28;20151;-63
2022/04/17 03:53:18;;;;;;;2.38;1.90;;;24.30;66.80;;;;;;4174123;28;20072;-64
2022/04/17 03:55:21;;;;;;;3.70;2.10;;;24.40;66.80;;;;;;4172557;28;20083;-63
2022/04/17 03:57:23;;;;;;;3.33;1.92;;;24.30;66.80;;;;;;4173064;28;20128;-62
2022/04/17 03:59:25;;;;;;;2.67;1.90;;;24.40;66.70;;;;;;4173357;28;20048;-60
2022/04/17 04:01:28;;;;;;;3.47;1.90;;;24.40;66.60;;;;;;4172107;28;20371;-61
2022/04/17 04:03:30;;;;;;;;;;;24.50;66.70;;;;;;4171782;28;20052;-62
2022/04/17 04:05:33;;;;;;;3.38;1.92;;;24.50;66.70;;;;;;4171679;28;19920;-60
2022/04/17 04:07:39;;;;;;;3.30;2.00;;;24.60;66.50;;;;;;4167347;28;20084;-58
2022/04/17 04:09:41;;;;;;;2.03;1.70;;;24.60;66.30;;;;;;4158685;28;20151;-59
2022/04/17 04:11:44;;;;;;;2.72;1.80;;;24.60;66.40;;;;;;4169595;28;20052;-58
2022/04/17 04:13:46;;;;;;;2.15;1.45;;;24.70;66.40;;;;;;4189248;28;20598;-58
2022/04/17 04:15:49;;;;;;;3.92;2.15;;;24.70;66.20;;;;;;4172093;28;20490;-59
2022/04/17 04:17:51;;;;;;;2.78;1.48;;;24.70;67.00;;;;;;4169709;28;20185;-59
2022/04/17 04:19:53;;;;;;;4.40;1.50;;;24.60;66.20;;;;;;4166338;28;20098;-59
2022/04/17 04:21:55;;;;;;;3.50;1.40;;;24.60;66.30;;;;;;4144387;28;20122;-59
2022/04/17 04:23:58;;;;;;;2.93;1.67;;;24.70;66.60;;;;;;4170073;28;20679;-60
2022/04/17 04:26:02;;;;;;;2.22;1.45;;;24.70;66.50;;;;;;4164170;28;20734;-61
2022/04/17 04:30:25;;;;;;;1.45;1.30;;;24.90;66.30;;;;;;4179999;28;20060;-62
2022/04/17 04:32:28;;;;;;;7.72;1.23;;;25.00;66.20;;;;;;4177937;28;20083;-61
2022/04/17 04:34:30;;;;;;;1.23;1.10;;;25.10;66.20;;;;;;4169019;28;20110;-61
2022/04/17 04:36:32;;;;;;;1.77;1.30;;;25.10;66.00;;;;;;4175595;28;20710;-60
2022/04/17 04:38:34;;;;;;;6.97;1.35;;;25.10;66.20;;;;;;4174225;28;20084;-59
2022/04/17 04:40:37;;;;;;;2.17;1.45;;;25.20;66.00;;;;;;4175481;28;20827;-61
2022/04/17 04:42:39;;;;;;;1.33;1.10;;;25.30;65.90;;;;;;4172974;28;20584;-61
2022/04/17 04:44:41;;;;;;;3.17;1.70;;;25.40;65.80;;;;;;4167237;28;20675;-59
2022/04/17 04:46:44;;;;;;;4.30;1.35;;;25.40;65.70;;;;;;4165978;28;20048;-60
2022/04/17 04:51:06;;;;;;;5.43;1.60;;;25.40;65.70;;;;;;4172393;28;20060;-61
2022/04/17 04:53:09;;;;;;;3.22;1.20;;;25.60;65.70;;;;;;4173299;28;20067;-61
2022/04/17 04:55:12;;;;;;;1.95;0.85;;;25.60;65.50;;;;;;4172766;28;20072;-61
2022/04/17 04:57:14;;;;;;;2.25;1.30;;;25.60;65.40;;;;;;4172842;28;20114;-64
2022/04/17 04:59:16;;;;;;;5.45;1.33;;;25.60;65.50;;;;;;4171573;28;20052;-66
2022/04/17 05:01:19;;;;;;;2.60;1.15;;;25.60;65.60;;;;;;4172921;28;20122;-66
2022/04/17 05:03:21;;;;;;;6.20;1.40;;;25.60;65.60;;;;;;4173649;28;20064;-67
2022/04/17 05:05:23;;;;;;;2.25;1.30;;;25.70;65.50;;;;;;4157157;28;20068;-63
2022/04/17 05:07:29;;;;;;;2.90;1.13;;;25.70;65.50;;;;;;4159628;28;20072;-63
2022/04/17 05:09:31;;;;;;;2.50;1.20;;;25.80;65.50;;;;;;4172770;28;20048;-62
2022/04/17 05:11:33;;;;;;;2.97;1.08;;;25.90;65.50;;;;;;4173917;28;20056;-62
2022/04/17 05:13:36;;;;;;;7.27;1.50;;;25.90;65.50;;;;;;4188676;28;20152;-61
2022/04/17 05:15:38;;;;;;;2.55;0.90;;;26.00;65.50;;;;;;4172440;28;20799;-63
2022/04/17 05:17:40;;;;;;;11.65;1.67;;;26.00;65.40;;;;;;4185706;28;20048;-62
2022/04/17 05:19:43;;;;;;;3.40;1.30;;;26.10;65.40;;;;;;4155330;28;20073;-63
2022/04/17 05:21:47;;;;;;;8.25;1.30;;;26.20;65.40;;;;;;4172981;28;20052;-64
2022/04/17 05:23:49;;;;;;;14.13;1.88;;;26.20;65.30;;;;;;4172710;28;20062;-61
2022/04/17 05:25:56;;;;;;;9.05;1.00;;;26.20;65.30;;;;;;4174619;28;20158;-60
2022/04/17 05:27:58;;;;;;;9.27;1.30;;;26.30;65.30;;;;;;4173003;28;20916;-62
2022/04/17 05:30:01;;;;;;;4.30;1.15;;;26.30;65.30;;;;;;4174937;28;20052;-62
2022/04/17 05:32:03;;;;;;;2.75;0.63;;;26.30;65.20;;;;;;4171062;28;20075;-61
2022/04/17 05:34:05;;;;;;;3.25;0.85;;;26.40;65.20;;;;;;4173643;28;20156;-61
2022/04/17 05:36:08;;;;;;;1.13;0.73;;;26.40;65.20;;;;;;4156820;28;20084;-61
2022/04/17 05:38:10;;;;;;;4.25;1.75;;;26.40;65.10;;;;;;4166945;28;20735;-61
2022/04/17 05:40:13;;;;;;;7.38;1.95;;;26.40;65.20;;;;;;4169893;28;20090;-60
2022/04/17 05:42:16;;;;;;;2.75;1.70;;;26.40;65.20;;;;;;4174592;28;20167;-62
2022/04/17 05:44:18;;;;;;;4.07;2.45;;;26.40;65.20;;;;;;4175441;28;20634;-62
2022/04/17 05:46:20;;;;;;;5.20;2.77;;;26.50;65.20;;;;;;4172657;28;20052;-62
2022/04/17 05:48:22;;;;;;;4.77;2.83;;;26.50;65.20;;;;;;4174637;28;20049;-60
2022/04/17 05:50:25;;;;;;;4.43;3.08;;;26.50;65.20;;;;;;4171225;28;21120;-62
2022/04/17 05:52:27;;;;;;;7.30;3.30;;;26.50;65.20;;;;;;4152705;28;20056;-60
2022/04/17 05:54:29;;;;;;;5.57;2.97;;;26.50;65.30;;;;;;4157120;28;20187;-61
2022/04/17 05:56:32;;;;;;;7.00;3.33;;;26.50;65.30;;;;;;4172648;28;20064;-62
2022/04/17 05:58:34;;;;;;;4.90;2.97;;;26.50;65.20;;;;;;4175343;28;20588;-61
2022/04/17 06:00:36;;;;;;;6.03;3.10;;;26.50;65.20;;;;;;4169298;28;20301;-61
2022/04/17 06:02:39;;;;;;;7.75;4.15;;;26.50;65.20;;;;;;4171211;28;20036;-60
2022/04/17 06:04:41;;;;;;;4.55;3.53;;;26.50;65.10;;;;;;4173387;28;20056;-60
2022/04/17 06:06:43;;;;;;;5.88;4.18;;;26.40;64.80;;;;;;4172935;28;20439;-61
2022/04/17 06:08:49;;;;;;;6.15;4.65;;;26.40;64.70;;;;;;4173856;28;20135;-61
2022/04/17 06:10:51;;;;;;;7.32;4.18;;;26.40;64.60;;;;;;4171925;28;20094;-61
2022/04/17 06:12:54;;;;;;;7.10;4.43;;;26.40;64.50;;;;;;4174032;28;20523;-60
2022/04/17 06:14:56;;;;;;;8.55;4.80;;;26.30;64.30;;;;;;4174375;28;20052;-60
2022/04/17 06:16:58;;;;;;;5.78;4.53;;;26.30;64.20;;;;;;4161109;28;20672;-61
2022/04/17 06:19:00;;;;;;;5.57;4.32;;;26.30;64.20;;;;;;4158622;28;20053;-60
2022/04/17 06:21:02;;;;;;;7.43;4.70;;;26.30;64.20;;;;;;4176329;28;20859;-60
2022/04/17 06:23:04;;;;;;;5.78;4.20;;;26.20;64.00;;;;;;4174384;28;20056;-61
2022/04/17 06:25:09;;;;;;;5.57;4.47;;;26.20;64.10;;;;;;4177309;28;20064;-61
2022/04/17 06:27:11;;;;;;;5.40;4.10;;;26.20;63.90;;;;;;4177098;28;20052;-61
2022/04/17 06:29:13;;;;;;;5.43;4.20;;;26.20;63.90;;;;;;4184153;28;20054;-61
2022/04/17 06:31:16;;;;;;;5.68;4.05;;;26.20;63.90;;;;;;4173735;28;20173;-61
2022/04/17 06:33:18;;;;;;;4.25;3.30;;;26.10;63.90;;;;;;4177521;28;20364;-61
2022/04/17 06:35:20;;;;;;;5.95;4.18;;;26.10;63.90;;;;;;4180321;28;20699;-61
2022/04/17 06:37:22;;;;;;;4.53;3.47;;;26.10;63.90;;;;;;4190432;28;20105;-62
2022/04/17 06:39:24;;;;;;;4.60;3.40;;;26.10;63.90;;;;;;4173577;28;20865;-61
2022/04/17 06:41:27;;;;;;;4.23;3.03;;;26.10;63.90;;;;;;4171743;28;20528;-60
2022/04/17 06:43:29;;;;;;;4.50;3.47;;;26.10;64.00;;;;;;4175085;28;20956;-60
2022/04/17 06:45:32;;;;;;;5.13;3.58;;;26.00;63.90;;;;;;4176099;28;20709;-60
2022/04/17 06:47:34;;;;;;;3.88;2.85;;;26.00;63.80;;;;;;4177510;28;20056;-59
2022/04/17 06:49:36;;;;;;;4.50;2.90;;;26.00;63.80;;;;;;4174491;28;20373;-58
2022/04/17 06:51:38;;;;;;;4.30;3.00;;;26.00;64.00;;;;;;4174836;28;20052;-59
2022/04/17 06:53:40;;;;;;;3.63;2.60;;;26.00;64.10;;;;;;4174341;28;20056;-59
2022/04/17 06:55:43;;;;;;;3.55;2.58;;;26.00;64.00;;;;;;4178131;28;20075;-59
2022/04/17 06:57:48;;;;;;;3.60;2.40;;;25.90;64.00;;;;;;4178473;28;20132;-60
2022/04/17 06:59:50;;;;;;;3.53;2.47;;;25.90;64.10;;;;;;4176162;28;20052;-60
2022/04/17 07:01:52;;;;;;;4.35;2.65;;;25.90;64.10;;;;;;4167400;28;20052;-60
2022/04/17 07:03:54;;;;;;;4.03;2.63;;;25.90;64.10;;;;;;4180100;28;20056;-59
2022/04/17 07:05:57;;;;;;;3.45;2.50;;;25.90;64.20;;;;;;4190375;28;20063;-60
2022/04/17 07:08:04;;;;;;;3.60;2.60;;;25.90;64.20;;;;;;4207830;28;20133;-60
2022/04/17 07:10:07;;;;;;;3.40;2.10;;;25.80;64.10;;;;;;4187327;28;20132;-60
2022/04/17 07:12:09;;;;;;;3.30;2.38;;;25.80;64.10;;;;;;4181827;28;20052;-60
2022/04/17 07:14:14;;;;;;;2.90;2.30;;;25.70;64.10;;;;;;4198956;28;20044;-60
2022/04/17 07:16:16;;;;;;;2.83;2.10;;;25.70;64.10;;;;;;4189242;28;20071;-60
2022/04/17 07:18:19;;;;;;;3.85;2.38;;;25.70;64.20;;;;;;4188982;28;20521;-60
2022/04/17 07:20:22;;;;;;;2.63;2.00;;;25.70;64.20;;;;;;4189991;28;20053;-61
2022/04/17 07:22:23;;;;;;;;;;;25.70;64.30;;;;;;4189019;28;20082;-60
2022/04/17 07:24:26;;;;;;;3.00;2.00;;;25.70;64.30;;;;;;4190962;28;19990;-60
2022/04/17 07:26:28;;;;;;;2.38;1.75;;;25.60;64.30;;;;;;4186300;28;20041;-60
2022/04/17 07:28:30;;;;;;;3.05;1.95;;;25.60;64.30;;;;;;4179705;28;20056;-60
2022/04/17 07:30:35;;;;;;;2.95;1.80;;;25.60;64.30;;;;;;4175237;28;20171;-60
2022/04/17 07:32:38;;;;;;;2.17;1.58;;;25.60;64.40;;;;;;4180966;28;20163;-60
2022/04/17 07:34:40;;;;;;;2.10;1.48;;;25.50;64.20;;;;;;4176817;28;20094;-60
2022/04/17 07:36:42;;;;;;;2.05;1.40;;;25.50;64.30;;;;;;4180917;28;20141;-60
2022/04/17 07:38:44;;;;;;;1.88;1.50;;;25.50;64.40;;;;;;4180020;28;20050;-60
2022/04/17 07:40:47;;;;;;;1.88;1.33;;;25.50;64.30;;;;;;4176274;28;20171;-60
2022/04/17 07:42:50;;;;;;;2.58;1.92;;;25.40;64.40;;;;;;4180028;28;20513;-60
2022/04/17 07:44:53;;;;;;;2.05;1.50;;;25.40;64.40;;;;;;4170235;28;20053;-60
2022/04/17 07:46:55;;;;;;;2.55;1.63;;;25.40;64.50;;;;;;4176566;28;20753;-61
2022/04/17 07:48:57;;;;;;;2.42;1.45;;;25.40;64.50;;;;;;4173976;28;20109;-60
2022/04/17 07:50:59;;;;;;;2.10;1.30;;;25.40;64.50;;;;;;4173363;28;20044;-61
2022/04/17 07:53:02;;;;;;;1.80;1.30;;;25.40;64.50;;;;;;4159036;28;20380;-60
2022/04/17 07:55:05;;;;;;;2.60;1.45;;;25.40;64.50;;;;;;4175052;28;20097;-59
2022/04/17 07:57:13;;;;;;;3.72;1.42;;;25.40;64.60;;;;;;4165237;28;20052;-61
2022/04/17 07:59:15;;;;;;;1.77;1.20;;;25.40;65.20;;;;;;4187674;28;20780;-60
2022/04/17 08:01:18;;;;;;;1.42;1.02;;;25.30;64.50;;;;;;4173337;28;20056;-60
2022/04/17 08:03:45;;;;;;;1.73;1.02;;;25.30;64.60;;;;;;4157974;28;21008;-61
2022/04/17 08:05:48;;;;;;;2.10;1.20;;;25.30;64.60;;;;;;4179226;28;20512;-60
2022/04/17 08:07:51;;;;;;;2.20;1.17;;;25.20;64.70;;;;;;4175592;28;20444;-60
2022/04/17 08:09:54;;;;;;;1.27;0.80;;;25.20;64.70;;;;;;4191238;28;20746;-59
2022/04/17 08:11:56;;;;;;;2.58;1.17;;;25.20;64.70;;;;;;4189784;28;20313;-60
2022/04/17 08:13:58;;;;;;;1.20;1.00;;;25.20;64.80;;;;;;4174183;28;20308;-60
2022/04/17 08:16:02;;;;;;;1.13;0.90;;;25.20;64.80;;;;;;4181182;28;20652;-61
2022/04/17 08:18:05;;;;;;;1.58;1.13;;;25.20;64.80;;;;;;4175807;28;20052;-60
2022/04/17 08:20:08;;;;;;;3.20;1.50;;;25.10;64.90;;;;;;4174811;28;20504;-60
2022/04/17 08:22:10;;;;;;;2.50;0.98;;;25.10;64.90;;;;;;4165043;28;20392;-60
2022/04/17 08:24:12;;;;;;;1.63;1.08;;;25.10;64.90;;;;;;4148442;28;20495;-60
2022/04/17 08:26:14;;;;;;;1.65;1.25;;;25.10;64.90;;;;;;4155229;28;20877;-59
2022/04/17 08:28:16;;;;;;;0.90;0.77;;;25.10;65.00;;;;;;4163979;28;20745;-59
2022/04/17 08:30:26;;;;;;;0.95;0.80;;;25.10;65.00;;;;;;4161574;28;20489;-60
2022/04/17 08:32:28;;;;;;;1.40;0.90;;;25.10;65.10;;;;;;4164539;28;20570;-59
2022/04/17 08:34:31;;;;;;;1.85;1.33;;;25.10;65.10;;;;;;4144326;28;20057;-59
2022/04/17 08:36:33;;;;;;;1.67;1.20;;;25.10;65.20;;;;;;4145959;28;20172;-60
2022/04/17 08:38:35;;;;;;;2.97;1.27;;;25.10;65.30;;;;;;4162359;28;20603;-61
2022/04/17 08:40:39;;;;;;;3.60;2.13;;;25.00;65.20;;;;;;4135118;28;20056;-60
2022/04/17 08:42:41;;;;;;;4.30;2.60;;;25.00;65.40;;;;;;4164010;28;20053;-61
2022/04/17 08:44:43;;;;;;;4.60;2.67;;;25.00;65.60;;;;;;4168228;28;20053;-60
2022/04/17 08:46:46;;;;;;;3.85;2.30;;;25.00;65.50;;;;;;4160008;28;20119;-60
2022/04/17 08:48:49;;;;;;;4.13;2.50;;;25.00;65.60;;;;;;4144387;28;20164;-59
2022/04/17 08:50:53;;;;;;;5.20;3.35;;;25.00;65.70;;;;;;4131581;28;20792;-58
2022/04/17 08:52:56;;;;;;;4.40;2.90;;;25.00;65.80;;;;;;4151730;28;20057;-58
2022/04/17 08:54:59;;;;;;;5.43;3.10;;;25.00;65.80;;;;;;4138854;28;20048;-60
2022/04/17 08:57:03;;;;;;;;;;;24.90;65.80;;;;;;4154198;28;20067;-61
2022/04/17 08:59:06;;;;;;;5.68;3.15;;;24.90;65.80;;;;;;4152071;28;20030;-61
2022/04/17 09:01:14;;;;;;;5.00;3.15;;;24.90;65.80;;;;;;4151229;28;20071;-59
2022/04/17 09:03:16;;;;;;;5.05;3.45;;;24.90;65.90;;;;;;4152026;28;20053;-60
2022/04/17 09:05:20;;;;;;;7.00;3.33;;;24.90;65.90;;;;;;4136303;28;20067;-60
2022/04/17 09:07:22;;;;;;;5.82;3.42;;;24.90;66.00;;;;;;4135504;28;20053;-59
2022/04/17 09:09:24;;;;;;;5.77;3.27;;;24.90;66.00;;;;;;4134039;28;20073;-60
2022/04/17 09:11:28;;;;;;;5.47;3.20;;;24.80;66.00;;;;;;4117232;28;20509;-61
2022/04/17 09:13:33;;;;;;;5.70;3.30;;;24.80;66.00;;;;;;4132363;28;20154;-60
2022/04/17 09:15:37;;;;;;;5.22;3.30;;;24.80;66.10;;;;;;4154773;28;20761;-60
2022/04/17 09:17:39;;;;;;;5.13;3.00;;;24.80;66.10;;;;;;4154826;28;20044;-60
2022/04/17 09:19:42;;;;;;;5.25;3.25;;;24.80;66.10;;;;;;4156038;28;20453;-59
2022/04/17 09:21:44;;;;;;;5.68;2.90;;;24.80;66.20;;;;;;4178212;28;20499;-60
2022/04/17 09:23:47;;;;;;;4.50;3.03;;;24.80;66.20;;;;;;4178959;28;20096;-61
2022/04/17 09:25:49;;;;;;;5.63;2.88;;;24.80;66.20;;;;;;4170047;28;20055;-60
2022/04/17 09:28:01;;;;;;;5.18;3.20;;;24.80;66.30;;;;;;4173558;28;20536;-61
2022/04/17 09:30:30;;;;;;;5.50;2.58;;;24.80;66.30;;;;;;4180156;28;20183;-60
2022/04/17 09:32:32;;;;;;;4.18;2.55;;;24.80;66.30;;;;;;4182139;28;20404;-60
2022/04/17 09:34:55;;;;;;;4.90;2.78;;;24.80;66.30;;;;;;4177344;28;20755;-60
2022/04/17 09:36:59;;;;;;;3.80;2.53;;;24.80;66.40;;;;;;4178645;28;20430;-60
2022/04/17 09:39:19;;;;;;;4.00;1.95;;;24.80;66.40;;;;;;4174227;28;20052;-61
2022/04/17 09:41:21;;;;;;;4.53;2.28;;;24.70;66.40;;;;;;4167569;28;20844;-61
2022/04/17 09:43:24;;;;;;;4.70;2.60;;;24.70;66.40;;;;;;4176024;28;20175;-61
2022/04/17 09:45:26;;;;;;;4.90;2.25;;;24.70;66.50;;;;;;4175869;28;20060;-61
2022/04/17 09:47:31;;;;;;;4.30;2.53;;;24.70;66.50;;;;;;4177537;28;20976;-59
2022/04/17 09:50:01;;;;;;;4.22;2.63;;;24.70;66.50;;;;;;4178459;28;20060;-60
2022/04/17 09:52:07;;;;;;;5.03;2.10;;;24.60;66.50;;;;;;4172033;28;20130;-60
2022/04/17 09:54:16;;;;;;;4.70;2.45;;;24.60;66.50;;;;;;4177813;28;20048;-61
2022/04/17 09:56:29;;;;;;;4.70;2.30;;;24.70;66.60;;;;;;4177276;28;20149;-61
2022/04/17 09:58:31;;;;;;;4.97;2.70;;;24.60;66.60;;;;;;4171674;28;20492;-60
2022/04/17 10:00:43;;;;;;;3.17;2.15;;;24.60;66.70;;;;;;4174637;28;20680;-60
2022/04/17 10:02:47;;;;;;;4.30;2.28;;;24.60;66.70;;;;;;4173844;28;20056;-60
2022/04/17 10:04:49;;;;;;;3.13;1.85;;;24.60;66.70;;;;;;4173545;28;20110;-60
2022/04/17 10:06:57;;;;;;;3.53;1.92;;;24.60;66.80;;;;;;4177201;28;20091;-60
2022/04/17 10:09:01;;;;;;;3.08;2.03;;;24.60;66.80;;;;;;4175534;28;20060;-61
2022/04/17 10:11:04;;;;;;;3.30;1.65;;;24.60;66.80;;;;;;4177635;28;20056;-60
2022/04/17 10:13:07;;;;;;;3.05;1.98;;;24.50;67.40;;;;;;4174886;28;20060;-60
2022/04/17 10:15:11;;;;;;;2.40;1.85;;;24.50;66.90;;;;;;4176090;28;20083;-60
2022/04/17 10:17:14;;;;;;;3.88;1.88;;;24.50;67.00;;;;;;4175671;28;20055;-61
2022/04/17 10:19:19;;;;;;;2.90;1.73;;;24.50;67.00;;;;;;4172446;28;20858;-61
2022/04/17 10:21:24;;;;;;;3.83;1.90;;;24.50;67.00;;;;;;4166387;28;20056;-60
2022/04/17 10:23:29;;;;;;;3.33;1.80;;;24.50;67.10;;;;;;4187991;28;20063;-61
2022/04/17 10:25:33;;;;;;;2.53;1.45;;;24.50;67.10;;;;;;4176288;28;20165;-59
2022/04/17 10:27:49;;;;;;;3.00;1.80;;;24.40;67.20;;;;;;4174838;28;20052;-60
2022/04/17 10:30:07;;;;;;;2.42;1.70;;;24.50;67.50;;;;;;4173755;28;20078;-61
2022/04/17 10:32:26;;;;;;;2.17;1.58;;;24.40;67.10;;;;;;4175896;28;20056;-61
2022/04/17 10:35:02;;;;;;;2.53;1.50;;;24.40;67.30;;;;;;4178311;28;20906;-60
2022/04/17 10:37:28;;;;;;;2.17;1.45;;;24.40;67.30;;;;;;4174180;28;20143;-60
2022/04/17 10:39:46;;;;;;;3.03;1.50;;;24.40;67.40;;;;;;4181644;28;20418;-60
2022/04/17 10:41:49;;;;;;;2.67;1.55;;;24.40;67.40;;;;;;4175363;28;20091;-59
2022/04/17 10:43:51;;;;;;;2.38;1.52;;;24.40;67.40;;;;;;4176045;28;20627;-60
2022/04/17 10:46:17;;;;;;;2.58;1.52;;;24.40;67.50;;;;;;4176388;28;20064;-61
2022/04/17 10:48:27;;;;;;;2.53;1.38;;;24.40;67.50;;;;;;4175458;28;20059;-60
2022/04/17 10:50:50;;;;;;;2.58;1.50;;;24.40;67.50;;;;;;4173304;28;20487;-60
2022/04/17 10:52:55;;;;;;;2.85;1.60;;;24.30;67.60;;;;;;4155033;28;21369;-61
2022/04/17 10:55:18;;;;;;;3.33;1.75;;;24.30;68.20;;;;;;4176117;28;20143;-59
2022/04/17 10:57:24;;;;;;;1.70;1.42;;;24.30;67.60;;;;;;4169080;28;20167;-60
2022/04/17 10:59:33;;;;;;;1.90;1.35;;;24.30;67.70;;;;;;4173332;28;20052;-60